Time;durP1;ratioP1;P1;durP2;ratioP2;P2;SDS_P1;SDS_P2;PMS_P1;PMS_P2;Temp;Humidity;BMP_temperature;BMP_pressure;BME280_temperature;BME280_humidity;BME280_pressure;Samples;Min_cycle;Max_cycle;Signal;HPM_P1;HPM_P2
2022/01/11 00:01:34;;;;;;;114.90;68.97;;;;;;;;;;5051772;28;20017;-58
2022/01/11 00:03:59;;;;;;;111.40;65.30;;;;;;;;;;5052914;28;20605;-57
2022/01/11 00:09:19;;;;;;;148.05;64.13;;;;;;;;;;5049947;28;20462;-58
2022/01/11 00:11:45;;;;;;;125.03;66.13;;;;;;;;;;5051803;28;20025;-58
2022/01/11 00:14:10;;;;;;;111.18;66.82;;;;;;;;;;5050798;28;20037;-58
2022/01/11 00:16:36;;;;;;;126.77;64.63;;;;;;;;;;5051605;28;20514;-58
2022/01/11 00:19:05;;;;;;;107.05;61.53;;;;;;;;;;5050643;28;20466;-58
2022/01/11 00:21:30;;;;;;;98.65;59.75;;;;;;;;;;5052095;28;20025;-58
2022/01/11 00:26:39;;;;;;;109.43;60.20;;;;;;;;;;5056003;28;20178;-57
2022/01/11 00:29:05;;;;;;;107.18;67.50;;;;;;;;;;5070099;28;20226;-58
2022/01/11 00:31:30;;;;;;;108.40;61.30;;;;;;;;;;5071842;28;20427;-58
2022/01/11 00:33:55;;;;;;;121.93;61.92;;;;;;;;;;5062293;28;20497;-58
2022/01/11 00:36:20;;;;;;;111.15;65.05;;;;;;;;;;5052153;28;20035;-57
2022/01/11 00:38:45;;;;;;;115.87;62.10;;;;;;;;;;5049275;28;20206;-57
2022/01/11 00:41:11;;;;;;;127.25;64.20;;;;;;;;;;5060126;28;20833;-58
2022/01/11 00:43:39;;;;;;;111.95;61.50;;;;;;;;;;5071355;28;20027;-58
2022/01/11 00:46:05;;;;;;;103.80;62.95;;;;;;;;;;5069801;28;20488;-57
2022/01/11 00:48:30;;;;;;;118.57;63.45;;;;;;;;;;5071762;28;20055;-57
2022/01/11 00:50:56;;;;;;;114.13;64.47;;;;;;;;;;5069920;28;20512;-57
2022/01/11 00:53:22;;;;;;;99.15;57.65;;;;;;;;;;5071427;28;20012;-58
2022/01/11 00:55:48;;;;;;;104.22;59.17;;;;;;;;;;5069314;28;20029;-57
2022/01/11 00:58:15;;;;;;;128.57;66.13;;;;;;;;;;5071496;28;20021;-57
2022/01/11 01:00:40;;;;;;;153.05;68.47;;;;;;;;;;5069080;28;20437;-58
2022/01/11 01:03:05;;;;;;;140.57;68.53;;;;;;;;;;5071012;28;20030;-58
2022/01/11 01:05:31;;;;;;;154.63;74.93;;;;;;;;;;5069598;28;20459;-58
2022/01/11 01:07:56;;;;;;;135.55;75.38;;;;;;;;;;5070733;28;20332;-57
2022/01/11 01:10:35;;;;;;;126.97;69.70;;;;;;;;;;5069706;28;20060;-58
2022/01/11 01:13:01;;;;;;;120.18;65.40;;;;;;;;;;5071390;28;20414;-58
2022/01/11 01:15:27;;;;;;;133.77;63.17;;;;;;;;;;5068990;28;20052;-58
2022/01/11 01:17:52;;;;;;;101.82;60.08;;;;;;;;;;5069510;28;20539;-58
2022/01/11 01:20:18;;;;;;;101.95;58.67;;;;;;;;;;5049542;28;20056;-58
2022/01/11 01:22:43;;;;;;;114.68;59.15;;;;;;;;;;5050357;28;20078;-58
2022/01/11 01:25:09;;;;;;;105.30;58.35;;;;;;;;;;5049598;28;20175;-58
2022/01/11 01:27:34;;;;;;;104.30;59.92;;;;;;;;;;5050483;28;20083;-58
2022/01/11 01:29:59;;;;;;;123.67;59.53;;;;;;;;;;5049049;28;20120;-58
2022/01/11 01:32:24;;;;;;;113.97;58.17;;;;;;;;;;5050910;28;20431;-58
2022/01/11 01:34:50;;;;;;;121.88;59.90;;;;;;;;;;5068061;28;20600;-58
2022/01/11 01:37:16;;;;;;;107.05;59.92;;;;;;;;;;5070617;28;20020;-58
2022/01/11 01:39:42;;;;;;;107.15;64.65;;;;;;;;;;5069045;28;20411;-58
2022/01/11 01:42:08;;;;;;;101.90;57.72;;;;;;;;;;5070805;28;20044;-58
2022/01/11 01:44:34;;;;;;;125.18;67.45;;;;;;;;;;5068854;28;20017;-58
2022/01/11 01:47:00;;;;;;;123.10;60.70;;;;;;;;;;5070915;28;20074;-58
2022/01/11 01:49:26;;;;;;;101.57;59.05;;;;;;;;;;5070240;28;20027;-59
2022/01/11 01:51:52;;;;;;;124.85;61.30;;;;;;;;;;5068449;28;20483;-58
2022/01/11 01:54:17;;;;;;;136.27;60.35;;;;;;;;;;5070420;28;20035;-58
2022/01/11 01:56:43;;;;;;;141.77;59.75;;;;;;;;;;5068618;28;20063;-58
2022/01/11 01:59:08;;;;;;;169.20;67.93;;;;;;;;;;5070313;28;20021;-58
2022/01/11 02:01:38;;;;;;;131.27;64.05;;;;;;;;;;5068819;28;20454;-59
2022/01/11 02:04:04;;;;;;;148.25;63.90;;;;;;;;;;5053201;28;20029;-58
2022/01/11 02:06:29;;;;;;;146.85;64.15;;;;;;;;;;5048867;28;20041;-59
2022/01/11 02:08:54;;;;;;;151.05;66.82;;;;;;;;;;5050156;28;20032;-58
2022/01/11 02:11:20;;;;;;;107.85;59.60;;;;;;;;;;5048932;28;20447;-58
2022/01/11 02:13:46;;;;;;;134.07;65.25;;;;;;;;;;5049687;28;20418;-58
2022/01/11 02:16:12;;;;;;;131.77;61.60;;;;;;;;;;5048949;28;20422;-58
2022/01/11 02:18:38;;;;;;;99.97;52.33;;;;;;;;;;5050151;28;20025;-58
2022/01/11 02:21:03;;;;;;;115.63;56.47;;;;;;;;;;5048714;28;20041;-58
2022/01/11 02:23:29;;;;;;;110.17;56.93;;;;;;;;;;5050441;28;20028;-58
2022/01/11 02:25:54;;;;;;;96.47;54.95;;;;;;;;;;5048466;28;20551;-58
2022/01/11 02:28:20;;;;;;;99.97;53.90;;;;;;;;;;5051189;28;20025;-58
2022/01/11 02:30:46;;;;;;;101.28;58.15;;;;;;;;;;5048569;28;20052;-58
2022/01/11 02:33:32;;;;;;;86.88;49.47;;;;;;;;;;5050187;28;20048;-58
2022/01/11 02:35:58;;;;;;;93.15;55.63;;;;;;;;;;5048410;28;20032;-58
2022/01/11 02:38:23;;;;;;;95.88;52.10;;;;;;;;;;5050161;28;20302;-58
2022/01/11 02:40:48;;;;;;;101.78;56.72;;;;;;;;;;5048280;28;20041;-58
2022/01/11 02:43:13;;;;;;;102.33;56.47;;;;;;;;;;5060737;28;20029;-58
2022/01/11 02:45:38;;;;;;;118.90;59.40;;;;;;;;;;5068430;28;20799;-58
2022/01/11 02:48:04;;;;;;;100.22;53.95;;;;;;;;;;5069866;28;20458;-58
2022/01/11 02:50:29;;;;;;;111.03;56.20;;;;;;;;;;5068464;28;20093;-58
2022/01/11 02:52:54;;;;;;;98.63;56.20;;;;;;;;;;5070026;28;20475;-58
2022/01/11 02:55:20;;;;;;;112.00;58.97;;;;;;;;;;5068453;28;20507;-58
2022/01/11 02:57:45;;;;;;;93.72;52.90;;;;;;;;;;5068822;28;20518;-58
2022/01/11 03:00:12;;;;;;;113.05;57.33;;;;;;;;;;5068549;28;20056;-58
2022/01/11 03:02:37;;;;;;;97.00;56.30;;;;;;;;;;5071019;28;20012;-60
2022/01/11 03:05:06;;;;;;;110.80;58.70;;;;;;;;;;5071957;28;20036;-58
2022/01/11 03:07:31;;;;;;;95.97;52.97;;;;;;;;;;5073198;28;20957;-58
2022/01/11 03:10:05;;;;;;;97.90;53.42;;;;;;;;;;5071917;28;20062;-58
2022/01/11 03:12:31;;;;;;;118.50;57.38;;;;;;;;;;5067745;28;20121;-59
2022/01/11 03:14:56;;;;;;;103.45;51.85;;;;;;;;;;5050498;28;20043;-60
2022/01/11 03:17:21;;;;;;;112.13;64.47;;;;;;;;;;5053670;28;20029;-58
2022/01/11 03:19:47;;;;;;;105.13;53.08;;;;;;;;;;5051434;28;20041;-58
2022/01/11 03:22:12;;;;;;;116.32;61.08;;;;;;;;;;5053256;28;20040;-57
2022/01/11 03:24:38;;;;;;;120.55;59.40;;;;;;;;;;5051787;28;20040;-58
2022/01/11 03:27:05;;;;;;;120.53;60.97;;;;;;;;;;5055865;28;20058;-58
2022/01/11 03:29:31;;;;;;;103.70;54.83;;;;;;;;;;5071330;28;20052;-59
2022/01/11 03:31:56;;;;;;;102.63;57.83;;;;;;;;;;5073140;28;20032;-58
2022/01/11 03:34:21;;;;;;;102.43;56.65;;;;;;;;;;5070977;28;20446;-58
2022/01/11 03:36:46;;;;;;;91.45;53.22;;;;;;;;;;5072796;28;20033;-58
2022/01/11 03:39:12;;;;;;;82.75;51.05;;;;;;;;;;5071568;28;20466;-58
2022/01/11 03:41:37;;;;;;;108.63;53.00;;;;;;;;;;5070150;28;20024;-58
2022/01/11 03:44:02;;;;;;;93.07;56.90;;;;;;;;;;5051396;28;20044;-58
2022/01/11 03:46:27;;;;;;;85.63;50.60;;;;;;;;;;5052734;28;20029;-58
2022/01/11 03:48:52;;;;;;;99.60;53.72;;;;;;;;;;5050845;28;20096;-57
2022/01/11 03:51:18;;;;;;;89.35;47.90;;;;;;;;;;5052636;28;20596;-58
2022/01/11 03:53:55;;;;;;;74.63;49.40;;;;;;;;;;5050973;28;20013;-58
2022/01/11 03:56:23;;;;;;;97.82;54.17;;;;;;;;;;5053287;28;21012;-58
2022/01/11 03:58:52;;;;;;;102.38;56.92;;;;;;;;;;5070994;28;20104;-58
2022/01/11 04:01:17;;;;;;;124.25;59.67;;;;;;;;;;5072884;28;20029;-57
2022/01/11 04:03:43;;;;;;;127.25;58.97;;;;;;;;;;5070834;28;20021;-58
2022/01/11 04:06:08;;;;;;;206.88;72.90;;;;;;;;;;5072378;28;20375;-58
2022/01/11 04:08:33;;;;;;;225.55;73.30;;;;;;;;;;5072203;28;20059;-58
2022/01/11 04:10:58;;;;;;;211.67;79.10;;;;;;;;;;5070701;28;20119;-58
2022/01/11 04:13:24;;;;;;;292.83;84.87;;;;;;;;;;5070887;28;20789;-58
2022/01/11 04:15:49;;;;;;;249.30;73.30;;;;;;;;;;5069985;28;20486;-57
2022/01/11 04:18:14;;;;;;;284.52;84.60;;;;;;;;;;5066391;28;20354;-58
2022/01/11 04:20:39;;;;;;;240.23;75.60;;;;;;;;;;5049942;28;20109;-57
2022/01/11 04:23:07;;;;;;;264.47;78.00;;;;;;;;;;5052074;28;20025;-58
2022/01/11 04:25:32;;;;;;;274.27;77.40;;;;;;;;;;5050171;28;20463;-58
2022/01/11 04:27:57;;;;;;;224.90;72.20;;;;;;;;;;5065766;28;20455;-57
2022/01/11 04:30:22;;;;;;;237.20;69.65;;;;;;;;;;5070675;28;20079;-58
2022/01/11 04:32:48;;;;;;;304.58;73.25;;;;;;;;;;5071619;28;20012;-58
2022/01/11 04:35:16;;;;;;;255.68;71.38;;;;;;;;;;5070060;28;20036;-57
2022/01/11 04:37:41;;;;;;;279.08;73.72;;;;;;;;;;5071429;28;20012;-57
2022/01/11 04:40:07;;;;;;;237.95;69.63;;;;;;;;;;5070279;28;20102;-58
2022/01/11 04:42:32;;;;;;;336.92;82.05;;;;;;;;;;5057703;28;20104;-58
2022/01/11 04:44:57;;;;;;;274.08;69.70;;;;;;;;;;5050349;28;20033;-57
2022/01/11 04:47:22;;;;;;;277.67;67.63;;;;;;;;;;5051662;28;20025;-58
2022/01/11 04:49:47;;;;;;;259.03;71.17;;;;;;;;;;5049502;28;20468;-58
2022/01/11 04:52:13;;;;;;;197.13;65.72;;;;;;;;;;5051204;28;20436;-58
2022/01/11 04:54:40;;;;;;;213.43;60.03;;;;;;;;;;5049792;28;20124;-58
2022/01/11 04:57:05;;;;;;;155.18;53.53;;;;;;;;;;5052473;28;20447;-58
2022/01/11 04:59:30;;;;;;;194.13;61.90;;;;;;;;;;5049673;28;20041;-58
2022/01/11 05:01:56;;;;;;;207.13;61.95;;;;;;;;;;5051392;28;20385;-58
2022/01/11 05:04:21;;;;;;;220.38;66.28;;;;;;;;;;5049870;28;20090;-58
2022/01/11 05:06:46;;;;;;;173.43;59.63;;;;;;;;;;5051038;28;20089;-58
2022/01/11 05:09:11;;;;;;;205.68;56.45;;;;;;;;;;5052984;28;20463;-58
2022/01/11 05:11:36;;;;;;;176.60;55.97;;;;;;;;;;5070381;28;20059;-58
2022/01/11 05:14:01;;;;;;;164.00;52.70;;;;;;;;;;5060074;28;20044;-57
2022/01/11 05:16:26;;;;;;;144.37;49.20;;;;;;;;;;5050824;28;20811;-57
2022/01/11 05:18:52;;;;;;;184.35;54.30;;;;;;;;;;5049287;28;20447;-57
2022/01/11 05:21:17;;;;;;;143.40;49.10;;;;;;;;;;5051002;28;20439;-57
2022/01/11 05:23:42;;;;;;;106.10;46.38;;;;;;;;;;5046660;28;20021;-57
2022/01/11 05:26:07;;;;;;;136.70;50.60;;;;;;;;;;5049644;28;20045;-57
2022/01/11 05:28:34;;;;;;;185.55;51.60;;;;;;;;;;5051130;28;20392;-58
2022/01/11 05:30:59;;;;;;;137.30;51.60;;;;;;;;;;5048841;28;20480;-57
2022/01/11 05:33:24;;;;;;;153.05;48.40;;;;;;;;;;5049927;28;20024;-57
2022/01/11 05:35:50;;;;;;;139.87;49.23;;;;;;;;;;5048407;28;20083;-57
2022/01/11 05:38:15;;;;;;;148.85;48.38;;;;;;;;;;5046771;28;20454;-57
2022/01/11 05:40:40;;;;;;;141.35;48.15;;;;;;;;;;5054850;28;20124;-57
2022/01/11 05:43:06;;;;;;;116.22;49.67;;;;;;;;;;5070901;28;20024;-57
2022/01/11 05:45:31;;;;;;;173.95;51.58;;;;;;;;;;5068989;28;20130;-58
2022/01/11 05:47:57;;;;;;;135.43;49.75;;;;;;;;;;5070195;28;20059;-58
2022/01/11 05:50:23;;;;;;;160.93;53.33;;;;;;;;;;5069215;28;20119;-57
2022/01/11 05:52:49;;;;;;;106.72;46.70;;;;;;;;;;5070449;28;20013;-58
2022/01/11 05:55:15;;;;;;;161.43;47.80;;;;;;;;;;5068609;28;20025;-58
2022/01/11 05:57:43;;;;;;;135.73;49.47;;;;;;;;;;5070365;28;20016;-58
2022/01/11 06:00:10;;;;;;;102.38;47.33;;;;;;;;;;5069072;28;20116;-58
2022/01/11 06:02:35;;;;;;;117.40;45.67;;;;;;;;;;5069984;28;20023;-58
2022/01/11 06:05:00;;;;;;;108.93;46.45;;;;;;;;;;5068996;28;20028;-57
2022/01/11 06:07:26;;;;;;;102.07;46.03;;;;;;;;;;5070486;28;20017;-57
2022/01/11 06:09:51;;;;;;;102.90;47.47;;;;;;;;;;5068243;28;20474;-58
2022/01/11 06:12:16;;;;;;;102.57;45.17;;;;;;;;;;5054248;28;20449;-57
2022/01/11 06:14:41;;;;;;;131.35;47.85;;;;;;;;;;5047975;28;20033;-58
2022/01/11 06:17:06;;;;;;;105.50;43.28;;;;;;;;;;5049495;28;20021;-58
2022/01/11 06:19:31;;;;;;;123.07;43.55;;;;;;;;;;5048370;28;20072;-58
2022/01/11 06:21:57;;;;;;;107.13;45.23;;;;;;;;;;5049871;28;20500;-58
2022/01/11 06:24:22;;;;;;;108.50;41.17;;;;;;;;;;5047800;28;20535;-58
2022/01/11 06:26:47;;;;;;;146.23;48.75;;;;;;;;;;5049651;28;20403;-58
2022/01/11 06:29:12;;;;;;;98.00;42.37;;;;;;;;;;5048861;28;20045;-57
2022/01/11 06:31:38;;;;;;;129.15;44.88;;;;;;;;;;5050045;28;20455;-57
2022/01/11 06:34:03;;;;;;;93.97;42.53;;;;;;;;;;5048365;28;20033;-57
2022/01/11 06:36:28;;;;;;;125.20;44.08;;;;;;;;;;5049498;28;20415;-57
2022/01/11 06:38:54;;;;;;;115.85;42.20;;;;;;;;;;5051629;28;20017;-57
2022/01/11 06:41:19;;;;;;;159.70;42.97;;;;;;;;;;5053257;28;20021;-57
2022/01/11 06:43:44;;;;;;;127.20;46.43;;;;;;;;;;5051672;28;20013;-57
2022/01/11 06:46:09;;;;;;;117.85;44.08;;;;;;;;;;5053593;28;20430;-57
2022/01/11 06:48:34;;;;;;;110.57;39.77;;;;;;;;;;5052677;28;20463;-58
2022/01/11 06:50:59;;;;;;;108.57;40.70;;;;;;;;;;5051729;28;20450;-57
2022/01/11 06:53:25;;;;;;;119.07;42.37;;;;;;;;;;5053304;28;20471;-57
2022/01/11 06:55:50;;;;;;;80.28;40.20;;;;;;;;;;5051012;28;20985;-57
2022/01/11 06:58:16;;;;;;;116.70;45.28;;;;;;;;;;5053244;28;20097;-57
2022/01/11 07:00:42;;;;;;;117.50;43.58;;;;;;;;;;5051538;28;20099;-57
2022/01/11 07:03:07;;;;;;;111.07;38.38;;;;;;;;;;5053121;28;20142;-57
2022/01/11 07:05:32;;;;;;;166.20;48.43;;;;;;;;;;5051947;28;20076;-57
2022/01/11 07:07:57;;;;;;;97.97;40.00;;;;;;;;;;5053391;28;20775;-57
2022/01/11 07:10:22;;;;;;;105.47;38.77;;;;;;;;;;5051689;28;20448;-57
2022/01/11 07:12:47;;;;;;;181.60;50.53;;;;;;;;;;5053479;28;20505;-57
2022/01/11 07:15:13;;;;;;;127.60;47.47;;;;;;;;;;5052038;28;20033;-57
2022/01/11 07:17:38;;;;;;;103.75;41.53;;;;;;;;;;5052841;28;20416;-57
2022/01/11 07:20:04;;;;;;;185.23;45.70;;;;;;;;;;5051793;28;20040;-56
2022/01/11 07:22:29;;;;;;;225.88;55.63;;;;;;;;;;5053470;28;20023;-56
2022/01/11 07:24:54;;;;;;;203.13;49.53;;;;;;;;;;5051148;28;20115;-56
2022/01/11 07:27:20;;;;;;;167.15;47.42;;;;;;;;;;5053022;28;20041;-56
2022/01/11 07:29:45;;;;;;;137.65;45.95;;;;;;;;;;5051343;28;20037;-56
2022/01/11 07:32:10;;;;;;;123.20;46.20;;;;;;;;;;5052697;28;20017;-55
2022/01/11 07:34:35;;;;;;;114.23;41.17;;;;;;;;;;5051227;28;20033;-56
2022/01/11 07:37:00;;;;;;;117.67;42.40;;;;;;;;;;5052886;28;20432;-56
2022/01/11 07:39:25;;;;;;;203.50;51.13;;;;;;;;;;5050603;28;20539;-56
2022/01/11 07:41:51;;;;;;;166.77;46.33;;;;;;;;;;5051126;28;20464;-55
2022/01/11 07:44:16;;;;;;;113.97;44.92;;;;;;;;;;5050874;28;20032;-56
2022/01/11 07:46:42;;;;;;;132.05;43.72;;;;;;;;;;5051999;28;20060;-55
2022/01/11 07:49:07;;;;;;;142.05;46.42;;;;;;;;;;5051349;28;20041;-56
2022/01/11 07:51:32;;;;;;;119.80;41.60;;;;;;;;;;5052571;28;20376;-56
2022/01/11 07:53:57;;;;;;;123.53;44.00;;;;;;;;;;5050938;28;20444;-56
2022/01/11 07:56:22;;;;;;;96.32;42.17;;;;;;;;;;5052524;28;20584;-56
2022/01/11 07:58:48;;;;;;;121.87;45.00;;;;;;;;;;5051249;28;20025;-56
2022/01/11 08:01:13;;;;;;;121.00;43.33;;;;;;;;;;5052316;28;20527;-56
2022/01/11 08:03:38;;;;;;;110.13;42.87;;;;;;;;;;5050998;28;20419;-56
2022/01/11 08:06:04;;;;;;;126.10;44.30;;;;;;;;;;5052455;28;20412;-56
2022/01/11 08:08:29;;;;;;;105.43;43.03;;;;;;;;;;5052068;28;20032;-55
2022/01/11 08:10:55;;;;;;;147.35;44.97;;;;;;;;;;5050905;28;20064;-55
2022/01/11 08:13:21;;;;;;;149.02;46.75;;;;;;;;;;5052642;28;20021;-55
2022/01/11 08:15:47;;;;;;;152.05;44.65;;;;;;;;;;5050026;28;20110;-55
2022/01/11 08:18:12;;;;;;;147.23;45.83;;;;;;;;;;5052546;28;20467;-56
2022/01/11 08:20:37;;;;;;;108.80;44.13;;;;;;;;;;5050524;28;20369;-55
2022/01/11 08:23:02;;;;;;;132.20;50.58;;;;;;;;;;5052026;28;20431;-56
2022/01/11 08:25:27;;;;;;;135.00;45.50;;;;;;;;;;5049844;28;20036;-55
2022/01/11 08:27:52;;;;;;;143.25;46.38;;;;;;;;;;5051351;28;20534;-56
2022/01/11 08:30:18;;;;;;;119.13;47.97;;;;;;;;;;5050067;28;20120;-55
2022/01/11 08:32:43;;;;;;;147.82;48.03;;;;;;;;;;5051953;28;20020;-55
2022/01/11 08:35:09;;;;;;;188.43;52.35;;;;;;;;;;5050154;28;20048;-56
2022/01/11 08:37:34;;;;;;;123.13;43.72;;;;;;;;;;5051626;28;20021;-55
2022/01/11 08:39:59;;;;;;;136.32;46.67;;;;;;;;;;5050393;28;20408;-54
2022/01/11 08:42:25;;;;;;;126.90;43.73;;;;;;;;;;5047505;28;20029;-53
2022/01/11 08:44:50;;;;;;;130.60;44.70;;;;;;;;;;5049624;28;20543;-54
2022/01/11 08:47:16;;;;;;;126.85;44.30;;;;;;;;;;5051293;28;20100;-54
2022/01/11 08:49:42;;;;;;;139.05;47.83;;;;;;;;;;5049937;28;20158;-54
2022/01/11 08:52:07;;;;;;;136.73;47.58;;;;;;;;;;5051529;28;20031;-54
2022/01/11 08:54:32;;;;;;;121.60;45.97;;;;;;;;;;5049596;28;20037;-54
2022/01/11 08:56:58;;;;;;;118.95;42.47;;;;;;;;;;5051229;28;21020;-54
2022/01/11 08:59:25;;;;;;;132.65;44.83;;;;;;;;;;5049146;28;20031;-54
2022/01/11 09:01:50;;;;;;;161.20;46.92;;;;;;;;;;5050793;28;20035;-54
2022/01/11 09:04:16;;;;;;;114.05;44.53;;;;;;;;;;5049894;28;20041;-54
2022/01/11 09:06:41;;;;;;;112.10;45.30;;;;;;;;;;5051347;28;20035;-54
2022/01/11 09:09:07;;;;;;;115.03;42.63;;;;;;;;;;5049696;28;20041;-53
2022/01/11 09:11:32;;;;;;;136.30;49.80;;;;;;;;;;5050607;28;20048;-53
2022/01/11 09:13:57;;;;;;;171.95;49.40;;;;;;;;;;5049947;28;20029;-53
2022/01/11 09:16:24;;;;;;;125.93;44.65;;;;;;;;;;5050958;28;20066;-54
2022/01/11 09:18:49;;;;;;;134.95;46.95;;;;;;;;;;5049434;28;20463;-54
2022/01/11 09:21:15;;;;;;;127.93;48.22;;;;;;;;;;5052098;28;20021;-54
2022/01/11 09:23:40;;;;;;;159.27;47.40;;;;;;;;;;5051704;28;20029;-55
2022/01/11 09:26:05;;;;;;;171.02;50.97;;;;;;;;;;5057584;28;20043;-54
2022/01/11 09:28:30;;;;;;;113.30;45.13;;;;;;;;;;5050273;28;20486;-54
2022/01/11 09:30:55;;;;;;;109.82;43.65;;;;;;;;;;5049087;28;20040;-53
2022/01/11 09:33:21;;;;;;;123.78;49.80;;;;;;;;;;5045400;28;20032;-54
2022/01/11 09:35:46;;;;;;;120.57;46.57;;;;;;;;;;5028021;28;20044;-54
2022/01/11 09:38:11;;;;;;;104.03;46.63;;;;;;;;;;5030553;28;20408;-54
2022/01/11 09:40:36;;;;;;;115.68;47.00;;;;;;;;;;5027829;28;20513;-54
2022/01/11 09:43:01;;;;;;;116.22;44.60;;;;;;;;;;5029389;28;20473;-54
2022/01/11 09:45:27;;;;;;;105.88;46.58;;;;;;;;;;5029150;28;20041;-54
2022/01/11 09:47:52;;;;;;;116.33;48.47;;;;;;;;;;5030464;28;20017;-54
2022/01/11 09:50:18;;;;;;;141.70;48.10;;;;;;;;;;5029425;28;20584;-54
2022/01/11 09:52:43;;;;;;;125.20;54.40;;;;;;;;;;5030233;28;20468;-54
2022/01/11 09:55:10;;;;;;;127.93;49.60;;;;;;;;;;5029201;28;20091;-54
2022/01/11 09:57:35;;;;;;;121.43;53.67;;;;;;;;;;5030404;28;20376;-55
2022/01/11 10:00:01;;;;;;;121.70;46.90;;;;;;;;;;5029022;28;20033;-54
2022/01/11 10:02:26;;;;;;;122.17;46.97;;;;;;;;;;5030677;28;20583;-54
2022/01/11 10:04:58;;;;;;;125.32;52.47;;;;;;;;;;5029068;28;20518;-54
2022/01/11 10:07:30;;;;;;;135.25;48.80;;;;;;;;;;5034896;28;20019;-54
2022/01/11 10:09:55;;;;;;;132.70;49.75;;;;;;;;;;5048059;28;20488;-54
2022/01/11 10:12:22;;;;;;;128.30;56.47;;;;;;;;;;5051195;28;20036;-54
2022/01/11 10:14:51;;;;;;;124.18;54.05;;;;;;;;;;5051090;28;20438;-55
2022/01/11 10:17:19;;;;;;;116.50;50.63;;;;;;;;;;5054508;28;20044;-54
2022/01/11 10:19:49;;;;;;;124.90;53.38;;;;;;;;;;5052830;28;20041;-54
2022/01/11 10:22:15;;;;;;;125.13;52.45;;;;;;;;;;5053666;28;20425;-54
2022/01/11 10:24:42;;;;;;;130.02;55.85;;;;;;;;;;5052772;28;20033;-54
2022/01/11 10:27:12;;;;;;;140.02;59.00;;;;;;;;;;5050843;28;20091;-54
2022/01/11 10:29:40;;;;;;;145.05;55.50;;;;;;;;;;5051727;28;20049;-55
2022/01/11 10:32:14;;;;;;;134.05;53.60;;;;;;;;;;5054178;28;20063;-54
2022/01/11 10:34:39;;;;;;;128.15;55.75;;;;;;;;;;5049187;28;20037;-54
2022/01/11 10:37:05;;;;;;;132.90;53.13;;;;;;;;;;5053852;28;20024;-53
2022/01/11 10:39:38;;;;;;;139.95;56.90;;;;;;;;;;5052451;28;20561;-55
2022/01/11 10:42:03;;;;;;;154.32;58.08;;;;;;;;;;5053839;28;20087;-55
2022/01/11 10:45:01;;;;;;;151.23;63.42;;;;;;;;;;5051879;28;20041;-53
2022/01/11 10:47:28;;;;;;;171.38;63.38;;;;;;;;;;5027604;28;20106;-54
2022/01/11 10:49:54;;;;;;;132.80;58.65;;;;;;;;;;5051952;28;20040;-55
2022/01/11 10:52:20;;;;;;;141.88;58.58;;;;;;;;;;5053173;28;20477;-54
2022/01/11 10:54:45;;;;;;;133.83;60.10;;;;;;;;;;5051846;28;20087;-55
2022/01/11 10:57:24;;;;;;;143.10;61.45;;;;;;;;;;5053507;28;20508;-55
2022/01/11 11:00:05;;;;;;;139.10;59.35;;;;;;;;;;5049933;28;20044;-55
2022/01/11 11:02:30;;;;;;;108.47;53.45;;;;;;;;;;5053767;28;20440;-55
2022/01/11 11:04:58;;;;;;;126.67;58.40;;;;;;;;;;5051894;28;20040;-55
2022/01/11 11:07:24;;;;;;;126.82;62.22;;;;;;;;;;5049520;28;20551;-55
2022/01/11 11:09:53;;;;;;;131.07;57.42;;;;;;;;;;5049400;28;20128;-55
2022/01/11 11:12:19;;;;;;;129.77;56.92;;;;;;;;;;5053443;28;20478;-55
2022/01/11 11:14:48;;;;;;;120.95;54.78;;;;;;;;;;5051288;28;20048;-55
2022/01/11 11:17:29;;;;;;;125.03;56.22;;;;;;;;;;5048485;28;20025;-55
2022/01/11 11:20:14;;;;;;;121.63;57.58;;;;;;;;;;5048893;28;20451;-55
2022/01/11 11:22:41;;;;;;;107.25;56.42;;;;;;;;;;5051876;28;20107;-55
2022/01/11 11:25:07;;;;;;;115.75;57.50;;;;;;;;;;5042444;28;20195;-55
2022/01/11 11:27:32;;;;;;;108.82;54.03;;;;;;;;;;5068746;28;20087;-55
2022/01/11 11:29:59;;;;;;;121.20;53.58;;;;;;;;;;5065850;28;20036;-54
2022/01/11 11:32:24;;;;;;;118.28;53.70;;;;;;;;;;5048428;28;20044;-55
2022/01/11 11:34:50;;;;;;;118.45;53.63;;;;;;;;;;5054583;28;21023;-55
2022/01/11 11:37:18;;;;;;;111.78;54.25;;;;;;;;;;5053661;28;20082;-55
2022/01/11 11:39:44;;;;;;;122.35;55.80;;;;;;;;;;5049872;28;20034;-55
2022/01/11 11:42:13;;;;;;;125.35;56.65;;;;;;;;;;5068833;28;20035;-54
2022/01/11 11:44:43;;;;;;;120.60;56.20;;;;;;;;;;5058062;28;20029;-55
2022/01/11 11:47:08;;;;;;;127.97;57.67;;;;;;;;;;5053596;28;20033;-55
2022/01/11 11:49:44;;;;;;;108.53;52.53;;;;;;;;;;5066597;28;20075;-55
2022/01/11 11:52:16;;;;;;;115.75;54.08;;;;;;;;;;5068132;28;20102;-55
2022/01/11 11:54:51;;;;;;;119.80;60.65;;;;;;;;;;5058719;28;20033;-55
2022/01/11 11:57:17;;;;;;;122.63;56.55;;;;;;;;;;5052076;28;20029;-55
2022/01/11 11:59:49;;;;;;;122.32;56.88;;;;;;;;;;5050536;28;20029;-55
2022/01/11 12:02:29;;;;;;;129.65;53.67;;;;;;;;;;5052065;28;20025;-55
2022/01/11 12:04:54;;;;;;;133.00;56.50;;;;;;;;;;5050307;28;20041;-55
2022/01/11 12:07:31;;;;;;;112.63;55.35;;;;;;;;;;5052186;28;20387;-55
2022/01/11 12:09:57;;;;;;;109.85;56.47;;;;;;;;;;5050635;28;20055;-55
2022/01/11 12:12:41;;;;;;;123.53;58.75;;;;;;;;;;5051764;28;20020;-55
2022/01/11 12:15:21;;;;;;;106.72;54.28;;;;;;;;;;5050559;28;20094;-55
2022/01/11 12:17:47;;;;;;;100.22;50.05;;;;;;;;;;5051843;28;20017;-54
2022/01/11 12:20:32;;;;;;;97.10;48.03;;;;;;;;;;5050246;28;20403;-55
2022/01/11 12:22:57;;;;;;;98.68;48.13;;;;;;;;;;5051586;28;20032;-55
2022/01/11 12:25:30;;;;;;;101.57;48.05;;;;;;;;;;5050455;28;20396;-55
2022/01/11 12:27:59;;;;;;;101.78;54.25;;;;;;;;;;5051670;28;20172;-54
2022/01/11 12:30:26;;;;;;;95.93;45.60;;;;;;;;;;5050022;28;20109;-55
2022/01/11 12:33:06;;;;;;;99.22;50.63;;;;;;;;;;5051276;28;20483;-55
2022/01/11 12:35:32;;;;;;;92.88;48.53;;;;;;;;;;5046758;28;20041;-55
2022/01/11 12:38:07;;;;;;;85.93;46.25;;;;;;;;;;5050226;28;20029;-55
2022/01/11 12:40:38;;;;;;;96.43;46.15;;;;;;;;;;5049351;28;20139;-55
2022/01/11 12:43:08;;;;;;;97.22;46.22;;;;;;;;;;5051045;28;20017;-55
2022/01/11 12:45:51;;;;;;;82.25;39.67;;;;;;;;;;5049679;28;20033;-55
2022/01/11 12:48:40;;;;;;;88.50;43.40;;;;;;;;;;5051233;28;20525;-55
2022/01/11 12:51:05;;;;;;;91.80;44.08;;;;;;;;;;5041446;28;20029;-55
2022/01/11 12:53:30;;;;;;;85.10;43.30;;;;;;;;;;5051271;28;20020;-55
2022/01/11 12:55:56;;;;;;;75.13;37.13;;;;;;;;;;5049380;28;20512;-55
2022/01/11 12:58:21;;;;;;;75.10;40.28;;;;;;;;;;5050755;28;20078;-54
2022/01/11 13:00:46;;;;;;;72.65;39.20;;;;;;;;;;5049341;28;20125;-55
2022/01/11 13:03:11;;;;;;;88.28;46.10;;;;;;;;;;5050743;28;20024;-55
2022/01/11 13:05:40;;;;;;;83.47;41.00;;;;;;;;;;5048454;28;20407;-55
2022/01/11 13:08:07;;;;;;;84.05;44.13;;;;;;;;;;5051140;28;20024;-55
2022/01/11 13:10:32;;;;;;;84.70;42.72;;;;;;;;;;5049157;28;20419;-55
2022/01/11 13:13:04;;;;;;;84.75;39.67;;;;;;;;;;5050630;28;20095;-55
2022/01/11 13:15:36;;;;;;;83.63;39.30;;;;;;;;;;5049216;28;20033;-55
2022/01/11 13:18:09;;;;;;;95.57;44.00;;;;;;;;;;5051107;28;20013;-55
2022/01/11 13:20:38;;;;;;;86.32;42.25;;;;;;;;;;5048598;28;20044;-55
2022/01/11 13:23:26;;;;;;;86.40;43.85;;;;;;;;;;5050979;28;20021;-55
2022/01/11 13:26:02;;;;;;;78.28;45.22;;;;;;;;;;5048054;28;20025;-55
2022/01/11 13:28:33;;;;;;;73.22;41.78;;;;;;;;;;5050365;28;20155;-55
2022/01/11 13:30:59;;;;;;;72.45;41.35;;;;;;;;;;5049191;28;20029;-55
2022/01/11 13:33:28;;;;;;;85.55;40.95;;;;;;;;;;5050553;28;20386;-55
2022/01/11 13:35:54;;;;;;;79.78;41.80;;;;;;;;;;5048068;28;20037;-55
2022/01/11 13:38:19;;;;;;;70.47;38.53;;;;;;;;;;5050244;28;20036;-55
2022/01/11 13:40:44;;;;;;;75.50;41.00;;;;;;;;;;5044470;28;20024;-55
2022/01/11 13:43:13;;;;;;;74.88;39.65;;;;;;;;;;5049724;28;20994;-55
2022/01/11 13:45:39;;;;;;;77.68;39.25;;;;;;;;;;5048440;28;20029;-56
2022/01/11 13:48:17;;;;;;;76.22;41.63;;;;;;;;;;5050148;28;20100;-55
2022/01/11 13:50:47;;;;;;;83.78;40.00;;;;;;;;;;5048048;28;20123;-55
2022/01/11 13:53:29;;;;;;;78.97;42.30;;;;;;;;;;5050201;28;20079;-55
2022/01/11 13:55:58;;;;;;;73.20;41.47;;;;;;;;;;5047774;28;20025;-55
2022/01/11 13:58:24;;;;;;;73.05;40.03;;;;;;;;;;5050078;28;20353;-56
2022/01/11 14:00:49;;;;;;;87.05;44.80;;;;;;;;;;5048506;28;20087;-55
2022/01/11 14:03:15;;;;;;;76.53;36.77;;;;;;;;;;5049502;28;20477;-56
2022/01/11 14:05:40;;;;;;;71.80;39.60;;;;;;;;;;5048160;28;20859;-56
2022/01/11 14:08:09;;;;;;;71.07;37.20;;;;;;;;;;5049944;28;20048;-55
2022/01/11 14:10:37;;;;;;;71.20;39.40;;;;;;;;;;5047762;28;20056;-55